Time;durP1;ratioP1;P1;durP2;ratioP2;P2;SDS_P1;SDS_P2;PMS_P1;PMS_P2;Temp;Humidity;BMP_temperature;BMP_pressure;BME280_temperature;BME280_humidity;BME280_pressure;Samples;Min_cycle;Max_cycle;Signal;HPM_P1;HPM_P2
2021/06/25 00:02:01;;;;;;;1.65;0.20;;;;;;;;;;5082985;28;20507;-70
2021/06/25 00:04:28;;;;;;;0.30;0.17;;;;;;;;;;5071578;28;20028;-71
2021/06/25 00:06:55;;;;;;;0.80;0.20;;;;;;;;;;5052214;28;20036;-70
2021/06/25 00:09:22;;;;;;;2.88;0.50;;;;;;;;;;5065782;28;20020;-70
2021/06/25 00:11:49;;;;;;;1.55;0.30;;;;;;;;;;5066733;28;20037;-70
2021/06/25 00:14:23;;;;;;;1.00;0.20;;;;;;;;;;5057177;28;20025;-70
2021/06/25 00:16:51;;;;;;;0.55;0.20;;;;;;;;;;5068596;28;20037;-70
2021/06/25 00:19:18;;;;;;;0.73;0.20;;;;;;;;;;5066392;28;20040;-70
2021/06/25 00:21:46;;;;;;;1.30;0.20;;;;;;;;;;5048483;28;20044;-70
2021/06/25 00:24:13;;;;;;;0.50;0.25;;;;;;;;;;5072030;28;20035;-70
2021/06/25 00:26:40;;;;;;;0.57;0.20;;;;;;;;;;5070600;28;20036;-70
2021/06/25 00:29:07;;;;;;;0.32;0.28;;;;;;;;;;5052860;28;20473;-70
2021/06/25 00:31:36;;;;;;;0.28;0.10;;;;;;;;;;5070655;28;20031;-71
2021/06/25 00:34:04;;;;;;;1.00;0.30;;;;;;;;;;5072334;28;20032;-70
2021/06/25 00:36:31;;;;;;;0.47;0.20;;;;;;;;;;5051547;28;20036;-71
2021/06/25 00:38:58;;;;;;;0.25;0.08;;;;;;;;;;5071164;28;20099;-71
2021/06/25 00:41:25;;;;;;;1.25;0.30;;;;;;;;;;5069193;28;20064;-70
2021/06/25 00:43:52;;;;;;;1.83;0.20;;;;;;;;;;5060335;28;20056;-70
2021/06/25 00:46:19;;;;;;;1.17;0.30;;;;;;;;;;5066806;28;20056;-69
2021/06/25 00:48:47;;;;;;;1.08;0.10;;;;;;;;;;5067996;28;20055;-69
2021/06/25 00:51:14;;;;;;;0.22;0.10;;;;;;;;;;5049507;28;20167;-69
2021/06/25 00:53:42;;;;;;;0.73;0.30;;;;;;;;;;5069884;28;20036;-70
2021/06/25 00:56:12;;;;;;;1.55;0.13;;;;;;;;;;5068211;28;20072;-69
2021/06/25 00:58:39;;;;;;;1.00;0.20;;;;;;;;;;5067383;28;20635;-70
2021/06/25 01:01:06;;;;;;;1.15;0.50;;;;;;;;;;5067793;28;20056;-70
2021/06/25 01:03:34;;;;;;;0.35;0.28;;;;;;;;;;5067863;28;20028;-70
2021/06/25 01:06:01;;;;;;;1.90;0.30;;;;;;;;;;5065200;28;20051;-70
2021/06/25 01:08:28;;;;;;;0.88;0.22;;;;;;;;;;5068416;28;20493;-70
2021/06/25 01:10:56;;;;;;;2.08;0.20;;;;;;;;;;5068647;28;20037;-70
2021/06/25 01:13:23;;;;;;;1.17;0.40;;;;;;;;;;5054364;28;20079;-71
2021/06/25 01:15:50;;;;;;;0.32;0.20;;;;;;;;;;5046933;28;20048;-70
2021/06/25 01:18:17;;;;;;;1.48;0.10;;;;;;;;;;5068842;28;20033;-71
2021/06/25 01:20:44;;;;;;;1.58;0.30;;;;;;;;;;5069450;28;20397;-71
2021/06/25 01:23:12;;;;;;;0.57;0.20;;;;;;;;;;5072097;28;20187;-71
2021/06/25 01:25:39;;;;;;;0.32;0.20;;;;;;;;;;5074449;28;20028;-70
2021/06/25 01:28:11;;;;;;;0.40;0.20;;;;;;;;;;5071891;28;20135;-71
2021/06/25 01:30:43;;;;;;;3.28;0.40;;;;;;;;;;5071080;28;20035;-70
2021/06/25 01:33:12;;;;;;;1.10;0.20;;;;;;;;;;5064752;28;20025;-71
2021/06/25 01:35:39;;;;;;;1.13;0.32;;;;;;;;;;5069919;28;20134;-71
2021/06/25 01:38:06;;;;;;;0.40;0.20;;;;;;;;;;5071662;28;20051;-71
2021/06/25 01:40:36;;;;;;;0.75;0.20;;;;;;;;;;5064020;28;20359;-71
2021/06/25 01:43:04;;;;;;;1.17;0.30;;;;;;;;;;5057461;28;20071;-72
2021/06/25 01:45:33;;;;;;;1.70;0.32;;;;;;;;;;5072699;28;20103;-71
2021/06/25 01:48:01;;;;;;;0.95;0.10;;;;;;;;;;5076537;28;20024;-71
2021/06/25 01:50:29;;;;;;;1.20;0.22;;;;;;;;;;5078428;28;20028;-71
2021/06/25 01:52:58;;;;;;;1.25;0.40;;;;;;;;;;5065759;28;20481;-70
2021/06/25 01:55:26;;;;;;;0.55;0.20;;;;;;;;;;5079715;28;20036;-70
2021/06/25 01:57:53;;;;;;;1.05;0.20;;;;;;;;;;5082520;28;20035;-71
2021/06/25 02:00:21;;;;;;;0.77;0.20;;;;;;;;;;5056632;28;20727;-70
2021/06/25 02:02:48;;;;;;;1.05;0.25;;;;;;;;;;5076694;28;20443;-71
2021/06/25 02:05:16;;;;;;;1.25;0.20;;;;;;;;;;5067606;28;20389;-70
2021/06/25 02:07:43;;;;;;;0.68;0.20;;;;;;;;;;5074218;28;20070;-69
2021/06/25 02:10:11;;;;;;;4.03;0.20;;;;;;;;;;5072282;28;20037;-70
2021/06/25 02:12:38;;;;;;;0.68;0.22;;;;;;;;;;5071450;28;20509;-68
2021/06/25 02:15:06;;;;;;;0.75;0.32;;;;;;;;;;5074713;28;20062;-69
2021/06/25 02:17:34;;;;;;;0.93;0.40;;;;;;;;;;5094149;28;20029;-70
2021/06/25 02:20:01;;;;;;;0.88;0.30;;;;;;;;;;5080890;28;20032;-70
2021/06/25 02:22:28;;;;;;;0.75;0.20;;;;;;;;;;5094086;28;20103;-71
2021/06/25 02:24:55;;;;;;;0.85;0.20;;;;;;;;;;5076377;28;20037;-74
2021/06/25 02:27:22;;;;;;;1.05;0.40;;;;;;;;;;5065968;28;20065;-71
2021/06/25 02:29:49;;;;;;;0.70;0.25;;;;;;;;;;5079057;28;20036;-71
2021/06/25 02:32:16;;;;;;;1.60;0.20;;;;;;;;;;5073663;28;20040;-71
2021/06/25 02:34:44;;;;;;;0.60;0.30;;;;;;;;;;5057185;28;20291;-71
2021/06/25 02:37:11;;;;;;;0.57;0.30;;;;;;;;;;5074022;28;20036;-71
2021/06/25 02:39:38;;;;;;;3.50;0.50;;;;;;;;;;5072849;28;20098;-71
2021/06/25 02:42:06;;;;;;;2.30;0.20;;;;;;;;;;5073008;28;20040;-71
2021/06/25 02:44:33;;;;;;;1.92;0.30;;;;;;;;;;5070883;28;20028;-71
2021/06/25 02:47:00;;;;;;;0.63;0.20;;;;;;;;;;5052409;28;20379;-72
2021/06/25 02:49:27;;;;;;;0.65;0.28;;;;;;;;;;5069721;28;20048;-72
2021/06/25 02:51:54;;;;;;;0.47;0.15;;;;;;;;;;5065626;28;20033;-72
2021/06/25 02:54:21;;;;;;;0.50;0.20;;;;;;;;;;5068499;28;20044;-72
2021/06/25 02:56:48;;;;;;;2.22;0.30;;;;;;;;;;5072256;28;20094;-72
2021/06/25 02:59:16;;;;;;;1.00;0.40;;;;;;;;;;5063938;28;20094;-72
2021/06/25 03:01:43;;;;;;;6.03;1.25;;;;;;;;;;5066359;28;20079;-71
2021/06/25 03:04:10;;;;;;;3.65;0.70;;;;;;;;;;5073518;28;20033;-72
2021/06/25 03:06:37;;;;;;;1.02;0.60;;;;;;;;;;5053813;28;20052;-72
2021/06/25 03:09:04;;;;;;;0.93;0.30;;;;;;;;;;5070211;28;20024;-71
2021/06/25 03:11:31;;;;;;;1.08;0.17;;;;;;;;;;5070663;28;20028;-72
2021/06/25 03:13:58;;;;;;;1.08;0.35;;;;;;;;;;5072379;28;20028;-72
2021/06/25 03:16:25;;;;;;;1.02;0.20;;;;;;;;;;5070159;28;20049;-72
2021/06/25 03:18:53;;;;;;;0.98;0.30;;;;;;;;;;5073483;28;20096;-72
2021/06/25 03:21:20;;;;;;;1.75;0.20;;;;;;;;;;5053580;28;20040;-72
2021/06/25 03:23:47;;;;;;;0.45;0.13;;;;;;;;;;5055080;28;20060;-71
2021/06/25 03:26:14;;;;;;;0.20;0.10;;;;;;;;;;5068737;28;20119;-72
2021/06/25 03:28:41;;;;;;;4.90;1.17;;;;;;;;;;5072553;28;20427;-72
2021/06/25 03:31:08;;;;;;;3.58;0.30;;;;;;;;;;5064178;28;20029;-72
2021/06/25 03:33:36;;;;;;;0.73;0.25;;;;;;;;;;5082894;28;20128;-71
2021/06/25 03:36:03;;;;;;;0.70;0.20;;;;;;;;;;5070560;28;20048;-71
2021/06/25 03:38:33;;;;;;;1.33;0.15;;;;;;;;;;5073164;28;20056;-71
2021/06/25 03:41:00;;;;;;;1.08;0.13;;;;;;;;;;5071735;28;20493;-71
2021/06/25 03:43:27;;;;;;;1.10;0.10;;;;;;;;;;5072823;28;20044;-71
2021/06/25 03:45:54;;;;;;;1.33;0.20;;;;;;;;;;5052584;28;20102;-72
2021/06/25 03:48:22;;;;;;;1.38;0.20;;;;;;;;;;5069824;28;20040;-71
2021/06/25 03:50:49;;;;;;;0.52;0.10;;;;;;;;;;5066168;28;20044;-71
2021/06/25 03:53:16;;;;;;;0.57;0.20;;;;;;;;;;5054674;28;20122;-71
2021/06/25 03:58:29;;;;;;;0.40;0.10;;;;;;;;;;5070900;28;20090;-71
2021/06/25 04:00:56;;;;;;;0.28;0.03;;;;;;;;;;5071559;28;20485;-71
2021/06/25 04:03:26;;;;;;;0.50;0.30;;;;;;;;;;5052310;28;20044;-72
2021/06/25 04:05:53;;;;;;;1.20;0.10;;;;;;;;;;5070894;28;20397;-71
2021/06/25 04:08:20;;;;;;;0.35;0.05;;;;;;;;;;5071171;28;20021;-71
2021/06/25 04:10:47;;;;;;;0.65;0.00;;;;;;;;;;5070631;28;20036;-71
2021/06/25 04:13:14;;;;;;;0.45;0.10;;;;;;;;;;5072541;28;20388;-71
2021/06/25 04:15:41;;;;;;;0.25;0.10;;;;;;;;;;5070225;28;20044;-72
2021/06/25 04:18:09;;;;;;;1.48;0.70;;;;;;;;;;5072559;28;20099;-71
2021/06/25 04:20:36;;;;;;;3.67;0.70;;;;;;;;;;5071441;28;20029;-71
2021/06/25 04:23:03;;;;;;;0.43;0.20;;;;;;;;;;5071967;28;20029;-71
2021/06/25 04:25:30;;;;;;;0.77;0.10;;;;;;;;;;5075648;28;20124;-71
2021/06/25 04:27:57;;;;;;;1.60;0.10;;;;;;;;;;5060496;28;20044;-71
2021/06/25 04:30:25;;;;;;;3.15;0.30;;;;;;;;;;5054486;28;20028;-72
2021/06/25 04:32:52;;;;;;;4.85;0.50;;;;;;;;;;5092312;28;20035;-71
2021/06/25 04:35:19;;;;;;;1.95;0.20;;;;;;;;;;5067738;28;20108;-71
2021/06/25 04:37:46;;;;;;;2.45;0.20;;;;;;;;;;5052259;28;20104;-71
2021/06/25 04:40:14;;;;;;;2.33;0.40;;;;;;;;;;5063335;28;20190;-71
2021/06/25 04:42:41;;;;;;;0.10;0.03;;;;;;;;;;5071866;28;20045;-71
2021/06/25 04:45:09;;;;;;;2.33;0.47;;;;;;;;;;5065282;28;20477;-72
2021/06/25 04:47:36;;;;;;;0.30;0.10;;;;;;;;;;5070071;28;20033;-71
2021/06/25 04:50:04;;;;;;;0.47;0.20;;;;;;;;;;5067632;28;20039;-72
2021/06/25 04:52:31;;;;;;;0.15;0.10;;;;;;;;;;5053498;28;20039;-71
2021/06/25 04:54:58;;;;;;;0.50;0.10;;;;;;;;;;5070498;28;20028;-71
2021/06/25 04:57:25;;;;;;;0.13;0.10;;;;;;;;;;5070506;28;20067;-71
2021/06/25 04:59:52;;;;;;;0.55;0.17;;;;;;;;;;5073748;28;20048;-71
2021/06/25 05:02:19;;;;;;;1.67;0.40;;;;;;;;;;5073347;28;20037;-71
2021/06/25 05:04:47;;;;;;;2.28;0.20;;;;;;;;;;5054659;28;20586;-71
2021/06/25 05:07:14;;;;;;;0.70;0.10;;;;;;;;;;5039633;28;20480;-71
2021/06/25 05:09:41;;;;;;;0.50;0.10;;;;;;;;;;5065064;28;20160;-71
2021/06/25 05:12:08;;;;;;;1.08;0.10;;;;;;;;;;5057727;28;20040;-71
2021/06/25 05:14:35;;;;;;;2.42;0.22;;;;;;;;;;5072870;28;20060;-71
2021/06/25 05:17:03;;;;;;;0.70;0.30;;;;;;;;;;5067182;28;20072;-71
2021/06/25 05:19:30;;;;;;;0.32;0.10;;;;;;;;;;5072469;28;20040;-70
2021/06/25 05:21:57;;;;;;;0.30;0.10;;;;;;;;;;5054610;28;20047;-71
2021/06/25 05:24:24;;;;;;;0.93;0.10;;;;;;;;;;5055481;28;20037;-70
2021/06/25 05:26:51;;;;;;;0.50;0.20;;;;;;;;;;5071749;28;20550;-70
2021/06/25 05:29:18;;;;;;;2.30;0.20;;;;;;;;;;5052747;28;20041;-71
2021/06/25 05:31:45;;;;;;;0.93;0.10;;;;;;;;;;5053232;28;20033;-71
2021/06/25 05:34:13;;;;;;;0.73;0.38;;;;;;;;;;5051657;28;20045;-72
2021/06/25 05:36:40;;;;;;;1.05;0.00;;;;;;;;;;5068722;28;20036;-72
2021/06/25 05:39:07;;;;;;;0.40;0.20;;;;;;;;;;5054780;28;20048;-72
2021/06/25 05:41:34;;;;;;;0.32;0.15;;;;;;;;;;5072265;28;20415;-72
2021/06/25 05:44:01;;;;;;;0.40;0.10;;;;;;;;;;5092235;28;20469;-72
2021/06/25 05:46:28;;;;;;;1.30;0.10;;;;;;;;;;5073748;28;20051;-72
2021/06/25 05:48:55;;;;;;;1.13;0.20;;;;;;;;;;5061366;28;20073;-72
2021/06/25 05:51:22;;;;;;;0.45;0.10;;;;;;;;;;5072228;28;20067;-72
2021/06/25 05:53:50;;;;;;;1.80;0.15;;;;;;;;;;5073493;28;20114;-72
2021/06/25 05:56:17;;;;;;;0.63;0.10;;;;;;;;;;5071276;28;20052;-72
2021/06/25 05:58:44;;;;;;;1.75;0.10;;;;;;;;;;5074977;28;20059;-71
2021/06/25 06:01:11;;;;;;;0.65;0.10;;;;;;;;;;5072489;28;20035;-73
2021/06/25 06:03:39;;;;;;;0.10;0.00;;;;;;;;;;5058878;28;20037;-72
2021/06/25 06:06:06;;;;;;;1.75;0.10;;;;;;;;;;5053710;28;20064;-72
2021/06/25 06:08:36;;;;;;;0.50;0.10;;;;;;;;;;5072967;28;20115;-72
2021/06/25 06:11:03;;;;;;;0.32;0.10;;;;;;;;;;5052323;28;20390;-72
2021/06/25 06:13:30;;;;;;;1.70;0.20;;;;;;;;;;5066665;28;20489;-72
2021/06/25 06:15:57;;;;;;;0.50;0.20;;;;;;;;;;5055870;28;20852;-72
2021/06/25 06:18:34;;;;;;;0.10;0.10;;;;;;;;;;5072500;28;20032;-73
2021/06/25 06:21:01;;;;;;;1.45;0.10;;;;;;;;;;5056477;28;20060;-72
2021/06/25 06:31:53;;;;;;;1.77;0.20;;;;;;;;;;5064815;28;20036;-72
2021/06/25 06:34:21;;;;;;;0.90;0.20;;;;;;;;;;5071422;28;20546;-71
2021/06/25 06:36:48;;;;;;;0.43;0.20;;;;;;;;;;5071016;28;20040;-72
2021/06/25 06:39:16;;;;;;;1.65;0.20;;;;;;;;;;5070589;28;20119;-72
2021/06/25 06:41:43;;;;;;;0.40;0.20;;;;;;;;;;5061192;28;20756;-72
2021/06/25 06:44:10;;;;;;;1.83;0.30;;;;;;;;;;5064087;28;20029;-72
2021/06/25 06:46:37;;;;;;;1.67;0.20;;;;;;;;;;5063690;28;20045;-72
2021/06/25 06:49:05;;;;;;;0.10;0.10;;;;;;;;;;5034937;28;20120;-72
2021/06/25 06:51:32;;;;;;;0.85;0.10;;;;;;;;;;5044309;28;20033;-72
2021/06/25 06:54:02;;;;;;;1.98;0.10;;;;;;;;;;5025298;28;20057;-72
2021/06/25 06:56:29;;;;;;;0.73;0.20;;;;;;;;;;5045222;28;20481;-72
2021/06/25 06:58:59;;;;;;;0.88;0.17;;;;;;;;;;5044200;28;20445;-72
2021/06/25 07:01:27;;;;;;;0.40;0.20;;;;;;;;;;5044834;28;20061;-72
2021/06/25 07:03:54;;;;;;;0.60;0.30;;;;;;;;;;5025871;28;20387;-72
2021/06/25 07:06:21;;;;;;;0.30;0.20;;;;;;;;;;5043739;28;20037;-72
2021/06/25 07:08:48;;;;;;;2.70;0.50;;;;;;;;;;5050757;28;20442;-72
2021/06/25 07:11:15;;;;;;;2.30;0.20;;;;;;;;;;5043903;28;20505;-71
2021/06/25 07:13:43;;;;;;;0.22;0.17;;;;;;;;;;5026121;28;20545;-72
2021/06/25 07:16:12;;;;;;;1.77;0.20;;;;;;;;;;5028110;28;20048;-71
2021/06/25 07:18:39;;;;;;;1.70;0.40;;;;;;;;;;5043700;28;20029;-71
2021/06/25 07:21:06;;;;;;;1.08;0.20;;;;;;;;;;5043128;28;20044;-71
2021/06/25 07:23:34;;;;;;;1.27;0.20;;;;;;;;;;5045466;28;20402;-71
2021/06/25 07:26:01;;;;;;;2.25;0.82;;;;;;;;;;5044446;28;20112;-71
2021/06/25 07:28:28;;;;;;;1.13;0.30;;;;;;;;;;5042036;28;20174;-71
2021/06/25 07:30:55;;;;;;;0.52;0.17;;;;;;;;;;5043700;28;20049;-70
2021/06/25 07:33:23;;;;;;;2.47;0.35;;;;;;;;;;5044165;28;20508;-71
2021/06/25 07:35:50;;;;;;;1.17;0.28;;;;;;;;;;5026849;28;20040;-71
2021/06/25 07:38:17;;;;;;;0.63;0.20;;;;;;;;;;5043966;28;20069;-71
2021/06/25 07:40:44;;;;;;;1.00;0.30;;;;;;;;;;5045687;28;20115;-71
2021/06/25 07:43:11;;;;;;;1.05;0.30;;;;;;;;;;5042255;28;20401;-71
2021/06/25 07:45:38;;;;;;;1.42;0.30;;;;;;;;;;5044721;28;20048;-71
2021/06/25 07:48:06;;;;;;;0.85;0.22;;;;;;;;;;5045800;28;20056;-71
2021/06/25 07:50:33;;;;;;;1.90;0.40;;;;;;;;;;5067573;28;20044;-71
2021/06/25 07:53:00;;;;;;;0.47;0.30;;;;;;;;;;5044632;28;20048;-70
2021/06/25 07:55:27;;;;;;;1.33;0.30;;;;;;;;;;5060430;28;20052;-68
2021/06/25 07:57:54;;;;;;;1.27;0.57;;;;;;;;;;5063351;28;20083;-69
2021/06/25 08:00:22;;;;;;;1.23;0.55;;;;;;;;;;5067298;28;20083;-69
2021/06/25 08:02:49;;;;;;;3.25;0.60;;;;;;;;;;5062900;28;20032;-70
2021/06/25 08:05:16;;;;;;;1.48;0.57;;;;;;;;;;5061867;28;20036;-70
2021/06/25 08:07:43;;;;;;;1.95;0.65;;;;;;;;;;5064597;28;20034;-70
2021/06/25 08:10:10;;;;;;;1.23;0.50;;;;;;;;;;5064553;28;20036;-70
2021/06/25 08:12:37;;;;;;;1.42;0.50;;;;;;;;;;5062676;28;20044;-69
2021/06/25 08:15:04;;;;;;;1.40;0.50;;;;;;;;;;5065111;28;20481;-69
2021/06/25 08:17:32;;;;;;;3.22;0.80;;;;;;;;;;5063516;28;20040;-70
2021/06/25 08:19:59;;;;;;;3.60;1.23;;;;;;;;;;5060437;28;20032;-69
2021/06/25 08:22:26;;;;;;;1.85;0.80;;;;;;;;;;5066835;28;20036;-69
2021/06/25 08:24:53;;;;;;;1.08;0.65;;;;;;;;;;5059515;28;20082;-69
2021/06/25 08:27:21;;;;;;;3.35;0.90;;;;;;;;;;5066627;28;20025;-70
2021/06/25 08:29:48;;;;;;;4.75;0.98;;;;;;;;;;5059798;28;20025;-70
2021/06/25 08:32:15;;;;;;;3.63;2.17;;;;;;;;;;5063713;28;20652;-70
2021/06/25 08:34:42;;;;;;;2.70;0.95;;;;;;;;;;5068335;28;20098;-69
2021/06/25 08:37:09;;;;;;;2.50;1.00;;;;;;;;;;5063790;28;20127;-69
2021/06/25 08:39:38;;;;;;;1.73;0.80;;;;;;;;;;5057127;28;20520;-69
2021/06/25 08:42:06;;;;;;;1.17;0.55;;;;;;;;;;5063107;28;20044;-69
2021/06/25 08:44:34;;;;;;;2.00;0.82;;;;;;;;;;5065801;28;20021;-70
2021/06/25 08:47:01;;;;;;;2.75;0.85;;;;;;;;;;5046481;28;20537;-70
2021/06/25 08:49:29;;;;;;;2.63;0.77;;;;;;;;;;5067303;28;20128;-70
2021/06/25 08:51:57;;;;;;;1.70;0.70;;;;;;;;;;5066674;28;20317;-70
2021/06/25 08:54:24;;;;;;;3.20;0.73;;;;;;;;;;5067494;28;20032;-69
2021/06/25 08:56:51;;;;;;;2.05;0.68;;;;;;;;;;5066454;28;20090;-70
2021/06/25 08:59:19;;;;;;;1.02;0.50;;;;;;;;;;5070927;28;20033;-69
2021/06/25 09:01:50;;;;;;;3.58;0.85;;;;;;;;;;5068702;28;20067;-69
2021/06/25 09:04:37;;;;;;;3.20;1.20;;;;;;;;;;5064388;28;20363;-69
2021/06/25 09:07:07;;;;;;;2.63;1.65;;;;;;;;;;5065374;28;20485;-70
2021/06/25 09:09:40;;;;;;;2.85;1.52;;;;;;;;;;5067022;28;20028;-69
2021/06/25 09:12:08;;;;;;;2.67;1.33;;;;;;;;;;5070944;28;20054;-70
2021/06/25 09:14:54;;;;;;;14.48;8.23;;;;;;;;;;5066928;28;20027;-70
2021/06/25 09:17:21;;;;;;;4.78;2.42;;;;;;;;;;5085609;28;20037;-69
2021/06/25 09:19:48;;;;;;;2.10;1.10;;;;;;;;;;5068999;28;20036;-69
2021/06/25 09:22:15;;;;;;;1.63;0.75;;;;;;;;;;5067193;28;20032;-69
2021/06/25 09:24:43;;;;;;;2.35;1.20;;;;;;;;;;5068660;28;20102;-69
2021/06/25 09:27:11;;;;;;;2.63;0.93;;;;;;;;;;5068527;28;20521;-68
2021/06/25 09:29:41;;;;;;;1.92;0.95;;;;;;;;;;5064220;28;20491;-68
2021/06/25 09:32:10;;;;;;;1.95;1.02;;;;;;;;;;5070177;28;20029;-69
2021/06/25 09:34:51;;;;;;;2.05;0.80;;;;;;;;;;5063954;28;20400;-69
2021/06/25 09:37:19;;;;;;;1.75;0.90;;;;;;;;;;5070547;28;20464;-69
2021/06/25 09:40:18;;;;;;;2.03;1.00;;;;;;;;;;5069595;28;20546;-69
2021/06/25 09:43:05;;;;;;;3.33;0.80;;;;;;;;;;5034101;28;20690;-69
2021/06/25 09:45:32;;;;;;;3.78;1.00;;;;;;;;;;5063732;28;20124;-69
2021/06/25 09:47:59;;;;;;;2.65;1.10;;;;;;;;;;5070323;28;20489;-68
2021/06/25 09:50:32;;;;;;;2.45;1.15;;;;;;;;;;5070197;28;20041;-69
2021/06/25 09:53:06;;;;;;;1.88;1.08;;;;;;;;;;5072984;28;20028;-68
2021/06/25 09:55:55;;;;;;;4.22;1.83;;;;;;;;;;5071575;28;20029;-68
2021/06/25 10:04:02;;;;;;;4.97;1.50;;;;;;;;;;5072300;28;20540;-69
2021/06/25 10:06:35;;;;;;;2.35;1.30;;;;;;;;;;5069816;28;20040;-69
2021/06/25 10:09:02;;;;;;;5.25;2.10;;;;;;;;;;5055720;28;20626;-68
2021/06/25 10:11:30;;;;;;;5.88;3.03;;;;;;;;;;5066792;28;20032;-68
2021/06/25 10:13:58;;;;;;;5.13;3.67;;;;;;;;;;5072748;28;20397;-68
2021/06/25 10:16:26;;;;;;;7.63;3.10;;;;;;;;;;5068658;28;20382;-68
2021/06/25 10:18:54;;;;;;;4.88;3.33;;;;;;;;;;5071909;28;20164;-68
2021/06/25 10:21:22;;;;;;;6.65;3.83;;;;;;;;;;5070582;28;20397;-68
2021/06/25 10:23:51;;;;;;;7.30;3.47;;;;;;;;;;5072261;28;20029;-68
2021/06/25 10:26:19;;;;;;;4.03;2.53;;;;;;;;;;5070377;28;20485;-68
2021/06/25 10:28:47;;;;;;;5.85;2.80;;;;;;;;;;5086997;28;20041;-68
2021/06/25 10:31:15;;;;;;;5.93;2.60;;;;;;;;;;5067984;28;20389;-69
2021/06/25 10:33:43;;;;;;;4.05;1.60;;;;;;;;;;5069505;28;20039;-69
2021/06/25 10:36:11;;;;;;;9.48;2.55;;;;;;;;;;5093409;28;20040;-68
2021/06/25 10:38:41;;;;;;;3.08;1.35;;;;;;;;;;5055584;28;20040;-69
2021/06/25 10:41:09;;;;;;;4.35;1.85;;;;;;;;;;5073136;28;20052;-69
2021/06/25 10:43:55;;;;;;;2.90;1.35;;;;;;;;;;5075220;28;20437;-69
2021/06/25 10:46:40;;;;;;;1.92;1.20;;;;;;;;;;5075403;28;20497;-69
2021/06/25 10:49:09;;;;;;;2.63;1.50;;;;;;;;;;5075259;28;20052;-69
2021/06/25 10:51:38;;;;;;;2.50;1.33;;;;;;;;;;5075484;28;20051;-69
2021/06/25 10:54:15;;;;;;;2.65;1.10;;;;;;;;;;5071672;28;20060;-69
2021/06/25 10:56:43;;;;;;;3.53;1.20;;;;;;;;;;5062843;28;20050;-69
2021/06/25 10:59:22;;;;;;;1.95;1.20;;;;;;;;;;5075637;28;20075;-69
2021/06/25 11:01:54;;;;;;;3.28;0.98;;;;;;;;;;5087160;28;20064;-69
2021/06/25 11:04:36;;;;;;;2.67;0.90;;;;;;;;;;5075535;28;20036;-69
2021/06/25 11:07:11;;;;;;;3.75;1.20;;;;;;;;;;5071414;28;20207;-68
2021/06/25 11:09:55;;;;;;;3.63;1.45;;;;;;;;;;5091913;28;20032;-68
2021/06/25 11:12:38;;;;;;;2.15;1.30;;;;;;;;;;5092655;28;20224;-69
2021/06/25 11:15:06;;;;;;;3.95;2.78;;;;;;;;;;5079365;28;20183;-69
2021/06/25 11:17:50;;;;;;;3.30;2.00;;;;;;;;;;5066514;28;20138;-68
2021/06/25 11:20:19;;;;;;;2.40;1.20;;;;;;;;;;5074186;28;20035;-68
2021/06/25 11:23:12;;;;;;;3.50;1.80;;;;;;;;;;5077565;28;20040;-68
2021/06/25 11:25:39;;;;;;;2.67;1.10;;;;;;;;;;5061716;28;20059;-68
2021/06/25 11:28:27;;;;;;;2.00;1.20;;;;;;;;;;5094290;28;20032;-68
2021/06/25 11:31:12;;;;;;;3.42;1.25;;;;;;;;;;5065236;28;20025;-68
2021/06/25 11:33:49;;;;;;;2.75;1.48;;;;;;;;;;5076297;28;20036;-68
2021/06/25 11:36:22;;;;;;;2.65;1.27;;;;;;;;;;5070859;28;20075;-69
2021/06/25 11:38:58;;;;;;;1.60;0.80;;;;;;;;;;5070194;28;20520;-68
2021/06/25 11:41:29;;;;;;;2.70;1.27;;;;;;;;;;5067373;28;20497;-69
2021/06/25 11:43:57;;;;;;;1.90;1.20;;;;;;;;;;5068732;28;20056;-69
2021/06/25 11:46:24;;;;;;;1.13;0.82;;;;;;;;;;5067515;28;20037;-69
2021/06/25 11:48:53;;;;;;;2.08;0.75;;;;;;;;;;5066861;28;20064;-69
2021/06/25 11:51:26;;;;;;;5.15;1.00;;;;;;;;;;5066383;28;20056;-69
2021/06/25 11:53:54;;;;;;;2.92;0.93;;;;;;;;;;5065424;28;20124;-70
2021/06/25 11:56:23;;;;;;;1.80;0.70;;;;;;;;;;5067425;28;20037;-70
2021/06/25 11:58:57;;;;;;;2.65;1.02;;;;;;;;;;5067376;28;20089;-70
2021/06/25 12:01:24;;;;;;;1.92;0.70;;;;;;;;;;5068628;28;20032;-69
2021/06/25 12:03:51;;;;;;;1.13;0.80;;;;;;;;;;5050822;28;20044;-70
2021/06/25 12:06:19;;;;;;;1.80;0.80;;;;;;;;;;5065710;28;20033;-70
2021/06/25 12:08:53;;;;;;;1.98;0.70;;;;;;;;;;5066788;28;20032;-70
2021/06/25 12:11:20;;;;;;;;;;;;;;;;;;5066838;28;20492;-70
2021/06/25 12:13:47;;;;;;;1.70;0.70;;;;;;;;;;5067295;28;19908;-68
2021/06/25 12:16:14;;;;;;;1.50;0.80;;;;;;;;;;5068133;28;20493;-68
2021/06/25 12:18:44;;;;;;;1.77;1.10;;;;;;;;;;5068718;28;20378;-69
2021/06/25 12:21:15;;;;;;;3.92;0.82;;;;;;;;;;5061953;28;20138;-69
2021/06/25 12:23:43;;;;;;;1.13;1.00;;;;;;;;;;5069738;28;20045;-69
2021/06/25 12:26:18;;;;;;;1.30;0.70;;;;;;;;;;5067658;28;20035;-69
2021/06/25 12:28:46;;;;;;;1.65;0.80;;;;;;;;;;5066278;28;20054;-69
2021/06/25 12:31:18;;;;;;;1.25;0.60;;;;;;;;;;5065122;28;20640;-70
2021/06/25 12:33:45;;;;;;;1.77;0.80;;;;;;;;;;5066512;28;20066;-69
2021/06/25 12:36:16;;;;;;;1.90;0.63;;;;;;;;;;5066055;28;20059;-69
2021/06/25 12:38:46;;;;;;;1.20;0.50;;;;;;;;;;5067327;28;20037;-69
2021/06/25 12:41:14;;;;;;;1.50;0.65;;;;;;;;;;5067206;28;20515;-69
2021/06/25 12:43:42;;;;;;;0.75;0.38;;;;;;;;;;5068321;28;20040;-69
2021/06/25 12:46:20;;;;;;;1.67;0.40;;;;;;;;;;5062344;28;20131;-69
2021/06/25 12:48:48;;;;;;;0.70;0.40;;;;;;;;;;5064940;28;20037;-69
2021/06/25 12:51:17;;;;;;;1.75;0.50;;;;;;;;;;5058684;28;20036;-69
2021/06/25 12:53:57;;;;;;;1.42;0.50;;;;;;;;;;5055351;28;20033;-69
2021/06/25 12:56:25;;;;;;;1.08;0.50;;;;;;;;;;5048060;28;20036;-69
2021/06/25 12:59:12;;;;;;;2.03;0.60;;;;;;;;;;5039101;28;20045;-69
2021/06/25 13:01:46;;;;;;;2.90;0.88;;;;;;;;;;5055479;28;20116;-69
2021/06/25 13:04:27;;;;;;;5.68;2.00;;;;;;;;;;5059044;28;20112;-69
2021/06/25 13:06:57;;;;;;;3.05;1.08;;;;;;;;;;5053715;28;20478;-68
2021/06/25 13:09:27;;;;;;;4.03;1.25;;;;;;;;;;5054799;28;20032;-69
2021/06/25 13:11:54;;;;;;;2.28;1.25;;;;;;;;;;5062097;28;20031;-69
2021/06/25 13:14:31;;;;;;;2.50;1.30;;;;;;;;;;5058799;28;20033;-70
2021/06/25 13:17:00;;;;;;;6.15;2.30;;;;;;;;;;5050137;28;20043;-70
2021/06/25 13:19:28;;;;;;;20.17;9.18;;;;;;;;;;5058002;28;20036;-70
2021/06/25 13:22:00;;;;;;;6.95;3.05;;;;;;;;;;5059167;28;20385;-70
2021/06/25 13:24:41;;;;;;;2.65;1.10;;;;;;;;;;5042554;28;20029;-70
2021/06/25 13:27:09;;;;;;;1.20;0.60;;;;;;;;;;5055721;28;20098;-70
2021/06/25 13:29:47;;;;;;;2.35;1.05;;;;;;;;;;5057689;28;20028;-70
2021/06/25 13:32:21;;;;;;;2.95;0.40;;;;;;;;;;5054360;28;20036;-70
2021/06/25 13:34:56;;;;;;;1.33;0.38;;;;;;;;;;5066583;28;20021;-70
2021/06/25 13:37:36;;;;;;;0.80;0.40;;;;;;;;;;5064614;28;20128;-70
2021/06/25 13:40:03;;;;;;;0.80;0.30;;;;;;;;;;5058604;28;20036;-69
2021/06/25 13:42:30;;;;;;;1.08;0.40;;;;;;;;;;5056995;28;20040;-69
2021/06/25 13:45:18;;;;;;;0.57;0.40;;;;;;;;;;5056703;28;20067;-69
2021/06/25 13:47:45;;;;;;;0.55;0.30;;;;;;;;;;5055352;28;20063;-69
2021/06/25 13:50:13;;;;;;;1.40;0.50;;;;;;;;;;5057130;28;20052;-70
2021/06/25 13:52:40;;;;;;;2.00;0.73;;;;;;;;;;5062206;28;20039;-69
2021/06/25 13:55:19;;;;;;;3.40;0.80;;;;;;;;;;5065929;28;20500;-68
2021/06/25 13:57:50;;;;;;;3.30;1.08;;;;;;;;;;5055035;28;20120;-69
2021/06/25 14:00:26;;;;;;;4.97;2.95;;;;;;;;;;5056996;28;20063;-69
2021/06/25 14:02:53;;;;;;;3.13;1.98;;;;;;;;;;5061581;28;20029;-69
2021/06/25 14:05:20;;;;;;;1.88;0.50;;;;;;;;;;5061166;28;20047;-69
2021/06/25 14:07:58;;;;;;;3.20;0.73;;;;;;;;;;5056283;28;20040;-69
2021/06/25 14:10:26;;;;;;;3.22;1.45;;;;;;;;;;5048799;28;20032;-69
2021/06/25 14:12:53;;;;;;;6.00;3.03;;;;;;;;;;5052823;28;20512;-69
2021/06/25 14:15:20;;;;;;;7.22;3.72;;;;;;;;;;5062026;28;20033;-69
2021/06/25 14:18:07;;;;;;;3.88;2.13;;;;;;;;;;5055336;28;20743;-69
2021/06/25 14:20:34;;;;;;;2.22;0.73;;;;;;;;;;5056642;28;20063;-69
2021/06/25 14:23:01;;;;;;;3.88;1.70;;;;;;;;;;5055572;28;20086;-69
2021/06/25 14:25:28;;;;;;;25.17;16.35;;;;;;;;;;5057806;28;20040;-68
2021/06/25 14:27:56;;;;;;;30.25;18.77;;;;;;;;;;5052797;28;20359;-69
2021/06/25 14:30:23;;;;;;;28.33;16.20;;;;;;;;;;5052441;28;20038;-69
2021/06/25 14:32:53;;;;;;;26.52;13.27;;;;;;;;;;5056712;28;20033;-68
2021/06/25 14:35:20;;;;;;;35.88;20.15;;;;;;;;;;5060364;28;20024;-69
2021/06/25 14:37:48;;;;;;;9.95;5.05;;;;;;;;;;5071434;28;20049;-69
2021/06/25 14:40:15;;;;;;;58.90;29.58;;;;;;;;;;5047637;28;20061;-69
2021/06/25 14:42:42;;;;;;;37.70;18.90;;;;;;;;;;5053900;28;20037;-69
2021/06/25 14:45:11;;;;;;;35.58;18.70;;;;;;;;;;5057843;28;20485;-70
2021/06/25 14:47:38;;;;;;;67.30;38.67;;;;;;;;;;5061215;28;20148;-70
2021/06/25 14:50:06;;;;;;;15.75;8.85;;;;;;;;;;5056927;28;20041;-69
2021/06/25 14:52:33;;;;;;;11.15;6.65;;;;;;;;;;5065815;28;20032;-69
2021/06/25 14:55:00;;;;;;;8.10;4.50;;;;;;;;;;5056323;28;20029;-70
2021/06/25 14:57:27;;;;;;;8.10;4.22;;;;;;;;;;5056633;28;20513;-70
2021/06/25 14:59:54;;;;;;;7.63;3.75;;;;;;;;;;5041202;28;20049;-70
2021/06/25 15:02:21;;;;;;;3.72;1.02;;;;;;;;;;5061965;28;20541;-70
2021/06/25 15:04:49;;;;;;;0.95;0.52;;;;;;;;;;5052647;28;20068;-70
2021/06/25 15:07:16;;;;;;;1.55;0.60;;;;;;;;;;5063878;28;20037;-70
2021/06/25 15:09:44;;;;;;;4.90;2.17;;;;;;;;;;5059036;28;20028;-70
2021/06/25 15:12:11;;;;;;;4.18;2.47;;;;;;;;;;5051845;28;20028;-70